createdAt,value
2018-09-28T00:01:54.186Z,12.30
2018-09-28T00:06:56.338Z,10.50
2018-09-28T00:11:58.491Z,14.63
2018-09-28T00:17:00.645Z,11.70
2018-09-28T00:22:02.785Z,14.77
2018-09-28T00:27:04.938Z,12.40
2018-09-28T00:32:07.070Z,14.30
2018-09-28T00:37:09.233Z,11.83
2018-09-28T00:42:11.390Z,12.70
2018-09-28T00:47:13.517Z,12.03
2018-09-28T00:52:15.646Z,23.60
2018-09-28T00:57:18.097Z,12.57
2018-09-28T01:02:20.235Z,13.43
2018-09-28T01:07:22.370Z,12.73
2018-09-28T01:12:24.542Z,15.73
2018-09-28T01:17:26.674Z,13.77
2018-09-28T01:22:28.801Z,12.17
2018-09-28T01:27:37.680Z,13.43
2018-09-28T01:32:39.821Z,11.27
2018-09-28T01:37:41.937Z,11.73
2018-09-28T01:42:44.069Z,11.03
2018-09-28T01:47:46.274Z,10.67
2018-09-28T01:52:48.413Z,12.03
2018-09-28T01:57:50.566Z,10.60
2018-09-28T02:02:52.705Z,15.63
2018-09-28T02:07:54.853Z,14.90
2018-09-28T02:12:57.008Z,13.60
2018-09-28T02:18:06.149Z,16.37
2018-09-28T02:23:08.293Z,16.50
2018-09-28T02:28:10.431Z,11.43
2018-09-28T02:33:12.566Z,10.47
2018-09-28T02:38:14.724Z,14.00
2018-09-28T02:43:16.902Z,11.53
2018-09-28T02:48:19.046Z,10.93
2018-09-28T02:53:21.174Z,13.97
2018-09-28T02:58:23.342Z,15.70
2018-09-28T03:03:25.483Z,13.43
2018-09-28T03:08:27.630Z,12.87
2018-09-28T03:13:29.773Z,11.67
2018-09-28T03:18:31.906Z,12.07
2018-09-28T03:23:34.165Z,11.83
2018-09-28T03:28:36.310Z,12.50
2018-09-28T03:33:38.454Z,12.63
2018-09-28T03:38:40.634Z,10.73
2018-09-28T03:43:42.769Z,11.13
2018-09-28T03:48:44.914Z,12.77
2018-09-28T03:53:47.066Z,13.73
2018-09-28T03:58:49.247Z,11.60
2018-09-28T04:03:51.349Z,11.97
2018-09-28T04:08:53.494Z,10.90
2018-09-28T04:13:55.666Z,11.57
2018-09-28T04:18:57.837Z,12.37
2018-09-28T04:24:00.011Z,12.30
2018-09-28T04:29:02.177Z,12.40
2018-09-28T04:34:04.346Z,10.90
2018-09-28T04:39:06.582Z,13.73
2018-09-28T04:44:08.805Z,12.43
2018-09-28T04:49:10.991Z,12.73
2018-09-28T04:54:13.158Z,10.53
2018-09-28T04:59:15.326Z,14.37
2018-09-28T05:04:17.474Z,14.30
2018-09-28T05:09:19.605Z,12.90
2018-09-28T05:14:21.941Z,13.57
2018-09-28T05:19:24.196Z,13.90
2018-09-28T05:24:26.319Z,14.83
2018-09-28T05:29:28.469Z,16.40
2018-09-28T05:34:30.906Z,12.10
2018-09-28T05:39:33.196Z,18.30
2018-09-28T05:44:35.265Z,16.53
2018-09-28T05:49:37.421Z,19.00
2018-09-28T05:54:39.590Z,13.97
2018-09-28T05:59:47.427Z,24.73
2018-09-28T06:04:55.330Z,22.60
2018-09-28T06:09:57.486Z,14.73
2018-09-28T06:14:59.664Z,13.90
2018-09-28T06:20:01.830Z,13.37
2018-09-28T06:25:04.005Z,14.03
2018-09-28T06:30:06.259Z,18.43
2018-09-28T06:35:08.410Z,17.60
2018-09-28T06:40:10.594Z,16.57
2018-09-28T06:45:12.746Z,11.73
2018-09-28T06:50:14.949Z,9.07
2018-09-28T06:55:17.106Z,13.63
2018-09-28T07:00:19.334Z,14.30
2018-09-28T07:05:21.413Z,9.93
2018-09-28T07:10:23.557Z,9.30
2018-09-28T07:15:25.718Z,12.43
2018-09-28T07:20:27.905Z,11.10
2018-09-28T07:25:30.022Z,12.97
2018-09-28T07:30:32.166Z,16.20
2018-09-28T07:35:34.302Z,18.13
2018-09-28T07:40:36.477Z,17.93
2018-09-28T07:45:38.642Z,17.60
2018-09-28T07:50:40.798Z,17.70
2018-09-28T07:55:42.976Z,12.60
2018-09-28T08:00:45.095Z,17.80
2018-09-28T08:05:47.278Z,14.90
2018-09-28T08:10:49.540Z,18.13
2018-09-28T08:15:51.789Z,13.83
2018-09-28T08:20:53.938Z,15.30
2018-09-28T08:25:56.082Z,11.10
2018-09-28T08:30:58.222Z,17.43
2018-09-28T08:36:00.373Z,16.33
2018-09-28T08:41:02.502Z,12.90
2018-09-28T08:46:04.660Z,12.50
2018-09-28T08:51:07.126Z,12.70
2018-09-28T08:56:09.337Z,19.80
2018-09-28T09:01:11.486Z,17.60
2018-09-28T09:06:13.617Z,19.10
2018-09-28T09:11:15.750Z,22.63
2018-09-28T09:16:17.902Z,15.03
2018-09-28T09:21:20.032Z,17.57
2018-09-28T09:26:22.173Z,17.17
2018-09-28T09:31:24.349Z,21.33
2018-09-28T09:36:26.531Z,22.30
2018-09-28T09:41:28.642Z,21.23
2018-09-28T09:46:30.789Z,20.50
2018-09-28T09:51:33.033Z,20.67
2018-09-28T09:56:35.173Z,22.00
2018-09-28T10:01:42.982Z,21.33
2018-09-28T10:06:45.106Z,19.63
2018-09-28T10:11:47.234Z,22.80
2018-09-28T10:16:49.358Z,23.23
2018-09-28T10:21:51.486Z,28.00
2018-09-28T10:26:53.652Z,31.33
2018-09-28T10:31:55.773Z,28.57
2018-09-28T10:36:57.910Z,27.67
2018-09-28T10:42:00.081Z,28.40
2018-09-28T10:47:02.245Z,26.50
2018-09-28T10:52:04.479Z,28.60
2018-09-28T10:57:07.764Z,25.13
2018-09-28T11:02:09.856Z,18.30
2018-09-28T11:07:11.987Z,20.43
2018-09-28T11:12:14.122Z,17.80
2018-09-28T11:17:16.273Z,17.13
2018-09-28T11:22:18.418Z,15.20
2018-09-28T11:27:20.572Z,18.40
2018-09-28T11:32:22.718Z,15.23
2018-09-28T11:37:24.866Z,17.33
2018-09-28T11:42:27.014Z,16.93
2018-09-28T11:47:29.283Z,14.23
2018-09-28T11:52:31.529Z,12.47
2018-09-28T11:57:33.666Z,16.80
2018-09-28T12:02:35.832Z,14.90
2018-09-28T12:07:37.970Z,13.20
2018-09-28T12:12:40.145Z,14.00
2018-09-28T12:17:42.292Z,16.10
2018-09-28T12:22:44.438Z,23.30
2018-09-28T12:27:46.624Z,14.70
2018-09-28T12:32:48.913Z,18.30
2018-09-28T12:37:53.013Z,13.40
2018-09-28T12:42:55.313Z,14.37
2018-09-28T12:47:57.479Z,13.77
2018-09-28T12:52:59.626Z,19.80
2018-09-28T12:58:01.784Z,16.17
2018-09-28T13:03:03.930Z,19.80
2018-09-28T13:08:06.150Z,25.97
2018-09-28T13:13:08.257Z,21.00
2018-09-28T13:18:10.413Z,17.87
2018-09-28T13:23:12.705Z,16.13
2018-09-28T13:28:14.858Z,13.50
2018-09-28T13:33:16.998Z,14.27
2018-09-28T13:38:19.180Z,10.50
2018-09-28T13:43:21.321Z,9.53
2018-09-28T13:48:23.523Z,12.30
2018-09-28T13:53:25.582Z,10.87
2018-09-28T13:58:27.725Z,11.73
2018-09-28T14:03:29.865Z,8.97
2018-09-28T14:08:32.009Z,15.20
2018-09-28T14:13:34.177Z,12.57
2018-09-28T14:18:36.379Z,10.53
2018-09-28T14:23:38.458Z,10.27
2018-09-28T14:28:40.679Z,15.10
2018-09-28T14:33:42.909Z,14.23
2018-09-28T14:38:45.064Z,15.70
2018-09-28T14:43:47.206Z,14.80
2018-09-28T14:48:49.571Z,17.77
2018-09-28T14:53:51.541Z,15.40
2018-09-28T14:58:53.725Z,19.30
2018-09-28T15:03:56.086Z,18.63
2018-09-28T15:08:58.230Z,19.70
2018-09-28T15:14:00.402Z,12.53
2018-09-28T15:19:02.756Z,11.37
2018-09-28T15:24:05.035Z,9.17
2018-09-28T15:29:07.446Z,7.13
2018-09-28T15:34:10.114Z,6.07
2018-09-28T15:39:13.170Z,8.43
2018-09-28T15:44:15.370Z,4.87
2018-09-28T15:49:17.608Z,9.97
2018-09-28T15:54:19.890Z,8.67
2018-09-28T15:59:22.085Z,13.37
2018-09-28T16:04:24.535Z,10.93
2018-09-28T16:09:26.730Z,6.60
2018-09-28T16:14:28.893Z,13.10
2018-09-28T16:19:31.100Z,9.70
2018-09-28T16:24:33.774Z,12.03
2018-09-28T16:29:35.934Z,11.87
2018-09-28T16:34:38.188Z,14.93
2018-09-28T16:39:40.399Z,10.93
2018-09-28T16:44:42.605Z,9.00
2018-09-28T16:49:44.818Z,14.70
2018-09-28T16:54:46.967Z,10.33
2018-09-28T16:59:49.126Z,11.90
2018-09-28T17:04:51.343Z,7.73
2018-09-28T17:09:53.528Z,9.10
2018-09-28T17:14:55.769Z,13.53
2018-09-28T17:19:57.997Z,10.03
2018-09-28T17:25:00.201Z,14.43
2018-09-28T17:30:02.464Z,10.43
2018-09-28T17:35:04.821Z,11.47
2018-09-28T17:40:07.592Z,14.60
2018-09-28T17:45:09.862Z,14.57
2018-09-28T17:50:12.066Z,10.40
2018-09-28T17:55:14.238Z,8.70
2018-09-28T18:00:16.466Z,11.20
2018-09-28T18:05:18.766Z,6.40
2018-09-28T18:10:20.969Z,13.30
2018-09-28T18:15:23.146Z,6.00
2018-09-28T18:20:25.322Z,8.63
2018-09-28T18:25:27.450Z,8.40
2018-09-28T18:30:29.629Z,7.83
2018-09-28T18:35:41.259Z,9.23
2018-09-28T18:40:43.897Z,8.17
2018-09-28T18:45:46.861Z,12.10
2018-09-28T18:50:48.997Z,10.07
2018-09-28T18:55:51.165Z,6.10
2018-09-28T19:00:53.445Z,7.47
2018-09-28T19:05:55.712Z,14.00
2018-09-28T19:10:57.785Z,8.73
2018-09-28T19:15:59.930Z,9.00
2018-09-28T19:21:02.101Z,10.20
2018-09-28T19:26:04.403Z,7.10
2018-09-28T19:31:06.561Z,7.00
2018-09-28T19:36:08.751Z,4.60
2018-09-28T19:41:10.918Z,10.23
2018-09-28T19:46:13.108Z,7.87
2018-09-28T19:51:15.270Z,8.30
2018-09-28T19:56:17.424Z,8.03
2018-09-28T20:01:19.573Z,18.43
2018-09-28T20:06:21.781Z,8.40
2018-09-28T20:11:23.918Z,8.00
2018-09-28T20:16:26.085Z,7.43
2018-09-28T20:21:28.598Z,10.80
2018-09-28T20:26:30.750Z,13.80
2018-09-28T20:31:32.946Z,11.77
2018-09-28T20:36:35.107Z,14.93
2018-09-28T20:41:37.301Z,5.63
2018-09-28T20:46:39.466Z,10.93
2018-09-28T20:51:42.456Z,10.00
2018-09-28T20:56:44.618Z,14.30
2018-09-28T21:01:46.809Z,6.07
2018-09-28T21:06:48.957Z,11.40
2018-09-28T21:11:51.134Z,9.90
2018-09-28T21:16:53.274Z,13.93
2018-09-28T21:21:55.413Z,13.53
2018-09-28T21:26:57.549Z,10.10
2018-09-28T21:31:59.697Z,10.60
2018-09-28T21:37:01.845Z,14.83
2018-09-28T21:42:03.986Z,22.93
2018-09-28T21:47:06.197Z,11.40
2018-09-28T21:52:08.343Z,16.40
2018-09-28T21:57:10.481Z,12.97
2018-09-28T22:02:12.638Z,13.90
2018-09-28T22:07:14.895Z,11.40
2018-09-28T22:12:17.050Z,11.30
2018-09-28T22:17:19.226Z,16.43
2018-09-28T22:22:21.385Z,14.53
2018-09-28T22:27:23.653Z,12.67
2018-09-28T22:32:25.802Z,8.17
2018-09-28T22:37:27.929Z,14.43
2018-09-28T22:42:30.098Z,8.20
2018-09-28T22:47:32.269Z,10.83
2018-09-28T22:52:34.558Z,12.60
2018-09-28T22:57:36.946Z,11.13
2018-09-28T23:07:48.030Z,12.13
2018-09-28T23:12:50.202Z,11.67
2018-09-28T23:17:52.347Z,10.23
2018-09-28T23:22:54.506Z,7.80
2018-09-28T23:27:56.658Z,12.50
2018-09-28T23:32:58.839Z,10.30
2018-09-28T23:38:00.970Z,11.57
2018-09-28T23:43:03.194Z,11.57
2018-09-28T23:48:05.604Z,6.20
2018-09-28T23:53:07.746Z,4.60
2018-09-28T23:58:09.914Z,10.83
